Time,TemperatureF,DewpointF,PressureIn,WindDirection,WindDirectionDegrees,WindSpeedMPH,WindSpeedGustMPH,Humidity,HourlyPrecipIn,Conditions,Clouds,dailyrainin,SoftwareType,DateUTC
2013-01-13 00:01:00,58.6,54.7,29.93,SE,131,0.0,1.0,87,0.00,,,0.00,WeatherCatV1.02B3,2013-01-13 05:01:00,
2013-01-13 00:03:00,58.5,54.6,29.93,SE,126,2.0,3.0,87,0.00,,,0.00,WeatherCatV1.02B3,2013-01-13 05:03:00,
2013-01-13 00:04:00,58.5,54.6,29.93,SE,140,2.0,3.0,87,0.00,,,0.00,WeatherCatV1.02B3,2013-01-13 05:04:00,
2013-01-13 00:09:00,58.4,54.9,29.94,SE,141,1.0,5.0,88,0.00,,,0.00,WeatherCatV1.02B3,2013-01-13 05:09:00,
2013-01-13 00:14:00,58.1,54.6,29.94,SE,130,2.0,4.0,88,0.35,,,0.04,WeatherCatV1.02B3,2013-01-13 05:14:00,
2013-01-13 00:17:00,58.0,54.8,29.93,SE,130,0.0,0.0,89,0.13,,,0.04,WeatherCatV1.02B3,2013-01-13 05:17:00,
2013-01-13 00:22:00,57.9,54.7,29.92,SE,142,0.0,3.0,89,0.06,,,0.04,WeatherCatV1.02B3,2013-01-13 05:22:00,
2013-01-13 00:27:00,57.8,54.9,29.92,SE,134,0.0,3.0,90,0.04,,,0.04,WeatherCatV1.02B3,2013-01-13 05:27:00,
2013-01-13 00:32:00,57.9,55.0,29.92,SSE,147,1.0,5.0,90,0.00,,,0.04,WeatherCatV1.02B3,2013-01-13 05:32:00,
2013-01-13 00:37:00,57.9,55.0,29.92,SE,138,2.0,4.0,90,0.00,,,0.04,WeatherCatV1.02B3,2013-01-13 05:37:00,
2013-01-13 00:42:00,57.9,55.0,29.92,SE,143,1.0,4.0,90,0.00,,,0.04,WeatherCatV1.02B3,2013-01-13 05:42:00,
2013-01-13 00:47:00,58.0,55.1,29.91,SE,129,5.0,5.0,90,0.00,,,0.04,WeatherCatV1.02B3,2013-01-13 05:47:00,
2013-01-13 00:52:00,58.2,55.3,29.90,SE,126,4.0,6.0,90,0.00,,,0.04,WeatherCatV1.02B3,2013-01-13 05:52:00,
2013-01-13 00:57:00,58.2,55.0,29.90,SE,129,0.0,7.0,89,0.00,,,0.04,WeatherCatV1.02B3,2013-01-13 05:57:00,
2013-01-13 01:02:00,58.1,54.9,29.90,SE,132,0.0,5.0,89,0.00,,,0.04,WeatherCatV1.02B3,2013-01-13 06:02:00,
2013-01-13 01:07:00,58.1,54.9,29.90,SSE,150,0.0,3.0,89,0.00,,,0.04,WeatherCatV1.02B3,2013-01-13 06:07:00,
2013-01-13 01:12:00,58.1,54.9,29.90,ESE,116,0.0,2.0,89,0.00,,,0.04,WeatherCatV1.02B3,2013-01-13 06:12:00,
2013-01-13 01:17:00,58.1,54.9,29.90,SE,134,0.0,3.0,89,0.00,,,0.04,WeatherCatV1.02B3,2013-01-13 06:17:00,
2013-01-13 01:22:00,58.1,54.9,29.89,SE,135,1.0,2.0,89,0.00,,,0.05,WeatherCatV1.02B3,2013-01-13 06:22:00,
2013-01-13 01:27:00,58.0,54.8,29.89,SE,135,0.0,2.0,89,0.17,,,0.06,WeatherCatV1.02B3,2013-01-13 06:27:00,
2013-01-13 01:32:00,57.9,55.0,29.88,SE,140,0.0,3.0,90,0.53,,,0.09,WeatherCatV1.02B3,2013-01-13 06:32:00,
2013-01-13 01:37:00,57.8,54.9,29.88,ESE,119,0.0,3.0,90,0.13,,,0.10,WeatherCatV1.02B3,2013-01-13 06:37:00,
2013-01-13 01:42:00,57.8,55.2,29.88,ESE,119,0.0,0.0,91,0.10,,,0.11,WeatherCatV1.02B3,2013-01-13 06:42:00,
2013-01-13 01:47:00,57.7,55.1,29.87,ESE,121,3.0,3.0,91,0.07,,,0.11,WeatherCatV1.02B3,2013-01-13 06:47:00,
2013-01-13 01:52:00,57.8,55.2,29.87,ESE,121,0.0,0.0,91,0.05,,,0.11,WeatherCatV1.02B3,2013-01-13 06:52:00,
2013-01-13 01:57:00,57.8,55.2,29.88,ESE,121,0.0,0.0,91,0.00,,,0.11,WeatherCatV1.02B3,2013-01-13 06:57:00,
2013-01-13 02:02:00,57.6,55.3,29.87,ESE,121,2.0,2.0,92,0.00,,,0.11,WeatherCatV1.02B3,2013-01-13 07:02:00,
2013-01-13 02:07:00,57.6,55.3,29.88,SE,130,0.0,0.0,92,0.00,,,0.11,WeatherCatV1.02B3,2013-01-13 07:07:00,
2013-01-13 02:12:00,57.7,55.4,29.88,SE,130,0.0,0.0,92,0.00,,,0.11,WeatherCatV1.02B3,2013-01-13 07:12:00,
2013-01-13 02:17:00,57.7,55.4,29.87,SE,130,0.0,1.0,92,0.00,,,0.11,WeatherCatV1.02B3,2013-01-13 07:17:00,
2013-01-13 02:22:00,58.0,55.7,29.86,SSE,152,3.0,3.0,92,0.00,,,0.11,WeatherCatV1.02B3,2013-01-13 07:22:00,
2013-01-13 02:27:00,58.5,56.2,29.86,SE,129,2.0,3.0,92,0.00,,,0.11,WeatherCatV1.02B3,2013-01-13 07:27:00,
2013-01-13 02:32:00,58.8,56.5,29.86,SE,140,0.0,5.0,92,0.00,,,0.11,WeatherCatV1.02B3,2013-01-13 07:32:00,
2013-01-13 02:37:00,58.8,56.5,29.86,SE,140,0.0,1.0,92,0.00,,,0.11,WeatherCatV1.02B3,2013-01-13 07:37:00,
2013-01-13 02:42:00,59.2,56.6,29.85,SSE,149,1.0,3.0,91,0.00,,,0.11,WeatherCatV1.02B3,2013-01-13 07:42:00,
2013-01-13 02:47:00,59.5,56.9,29.86,West,269,0.0,2.0,91,0.00,,,0.11,WeatherCatV1.02B3,2013-01-13 07:47:00,
2013-01-13 02:52:00,60.0,57.4,29.85,SE,139,1.0,6.0,91,0.00,,,0.11,WeatherCatV1.02B3,2013-01-13 07:52:00,
2013-01-13 02:57:00,60.0,57.1,29.85,ESE,115,3.0,3.0,90,0.00,,,0.11,WeatherCatV1.02B3,2013-01-13 07:57:00,
2013-01-13 03:02:00,60.8,57.8,29.84,ESE,123,2.0,6.0,90,0.00,,,0.11,WeatherCatV1.02B3,2013-01-13 08:02:00,
2013-01-13 03:07:00,61.1,57.5,29.84,SE,144,0.0,1.0,88,0.00,,,0.11,WeatherCatV1.02B3,2013-01-13 08:07:00,
2013-01-13 03:12:00,61.4,57.8,29.83,SE,126,0.0,5.0,88,0.00,,,0.11,WeatherCatV1.02B3,2013-01-13 08:12:00,
2013-01-13 03:17:00,61.5,57.6,29.83,South,176,0.0,2.0,87,0.00,,,0.11,WeatherCatV1.02B3,2013-01-13 08:17:00,
2013-01-13 03:22:00,61.5,57.3,29.83,ESE,115,2.0,3.0,86,0.00,,,0.11,WeatherCatV1.02B3,2013-01-13 08:22:00,
2013-01-13 03:27:00,61.8,57.6,29.83,SE,125,3.0,4.0,86,0.00,,,0.11,WeatherCatV1.02B3,2013-01-13 08:27:00,
2013-01-13 03:32:00,62.1,57.5,29.82,SE,128,6.0,7.0,85,0.00,,,0.11,WeatherCatV1.02B3,2013-01-13 08:32:00,
2013-01-13 03:37:00,62.3,57.4,29.82,East,92,6.0,7.0,84,0.00,,,0.11,WeatherCatV1.02B3,2013-01-13 08:37:00,
2013-01-13 03:42:00,62.5,57.6,29.81,ESE,114,7.0,12.0,84,0.00,,,0.11,WeatherCatV1.02B3,2013-01-13 08:42:00,
2013-01-13 03:47:00,62.9,57.7,29.81,SSE,161,1.0,12.0,83,0.00,,,0.11,WeatherCatV1.02B3,2013-01-13 08:47:00,
2013-01-13 03:52:00,63.1,57.5,29.81,SE,145,6.0,7.0,82,0.00,,,0.11,WeatherCatV1.02B3,2013-01-13 08:52:00,
2013-01-13 03:57:00,63.2,57.6,29.81,SSE,156,1.0,10.0,82,0.00,,,0.11,WeatherCatV1.02B3,2013-01-13 08:57:00,
2013-01-13 04:02:00,63.5,57.9,29.81,ESE,123,2.0,7.0,82,0.00,,,0.11,WeatherCatV1.02B3,2013-01-13 09:02:00,
2013-01-13 04:07:00,63.8,58.2,29.80,ESE,104,12.0,12.0,82,0.00,,,0.11,WeatherCatV1.02B3,2013-01-13 09:07:00,
2013-01-13 04:12:00,64.2,58.2,29.81,SE,146,2.0,10.0,81,0.00,,,0.11,WeatherCatV1.02B3,2013-01-13 09:12:00,
2013-01-13 04:17:00,64.1,58.1,29.81,SE,140,0.0,11.0,81,0.00,,,0.11,WeatherCatV1.02B3,2013-01-13 09:17:00,
2013-01-13 04:22:00,64.0,58.0,29.80,ESE,121,5.0,5.0,81,0.00,,,0.11,WeatherCatV1.02B3,2013-01-13 09:22:00,
2013-01-13 04:27:00,63.8,57.9,29.80,SE,135,6.0,9.0,81,0.00,,,0.11,WeatherCatV1.02B3,2013-01-13 09:27:00,
2013-01-13 04:32:00,63.7,57.8,29.80,ESE,123,0.0,6.0,81,0.00,,,0.11,WeatherCatV1.02B3,2013-01-13 09:32:00,
2013-01-13 04:37:00,63.6,57.7,29.80,ESE,116,1.0,7.0,81,0.00,,,0.11,WeatherCatV1.02B3,2013-01-13 09:37:00,
2013-01-13 04:42:00,63.2,57.3,29.80,South,180,3.0,5.0,81,0.00,,,0.11,WeatherCatV1.02B3,2013-01-13 09:42:00,
2013-01-13 04:47:00,63.2,57.6,29.80,SE,133,3.0,7.0,82,0.00,,,0.11,WeatherCatV1.02B3,2013-01-13 09:47:00,
2013-01-13 04:52:00,63.1,57.5,29.79,ESE,119,3.0,5.0,82,0.00,,,0.11,WeatherCatV1.02B3,2013-01-13 09:52:00,
2013-01-13 04:57:00,63.1,57.5,29.79,SSE,155,0.0,5.0,82,0.00,,,0.11,WeatherCatV1.02B3,2013-01-13 09:57:00,
2013-01-13 05:02:00,63.0,57.4,29.79,East,87,0.0,0.0,82,0.00,,,0.11,WeatherCatV1.02B3,2013-01-13 10:02:00,
2013-01-13 05:07:00,63.0,57.4,29.80,SE,130,6.0,7.0,82,0.00,,,0.11,WeatherCatV1.02B3,2013-01-13 10:07:00,
2013-01-13 05:12:00,62.9,57.3,29.80,SE,133,0.0,5.0,82,0.00,,,0.11,WeatherCatV1.02B3,2013-01-13 10:12:00,
2013-01-13 05:17:00,62.9,57.3,29.79,East,93,5.0,6.0,82,0.00,,,0.11,WeatherCatV1.02B3,2013-01-13 10:17:00,
2013-01-13 05:22:00,63.1,57.5,29.79,SE,141,0.0,12.0,82,0.00,,,0.11,WeatherCatV1.02B3,2013-01-13 10:22:00,
2013-01-13 05:27:00,63.1,57.5,29.79,ESE,111,1.0,9.0,82,0.00,,,0.11,WeatherCatV1.02B3,2013-01-13 10:27:00,
2013-01-13 05:32:00,63.1,57.5,29.79,SSE,161,2.0,5.0,82,0.00,,,0.11,WeatherCatV1.02B3,2013-01-13 10:32:00,
2013-01-13 05:37:00,63.0,57.4,29.79,East,101,7.0,9.0,82,0.00,,,0.11,WeatherCatV1.02B3,2013-01-13 10:37:00,
2013-01-13 05:42:00,63.1,57.8,29.79,ESE,113,4.0,5.0,83,0.00,,,0.11,WeatherCatV1.02B3,2013-01-13 10:42:00,
2013-01-13 05:47:00,63.5,57.9,29.78,SSE,156,0.0,11.0,82,0.00,,,0.11,WeatherCatV1.02B3,2013-01-13 10:47:00,
2013-01-13 05:52:00,63.7,58.1,29.78,SE,134,5.0,7.0,82,0.00,,,0.11,WeatherCatV1.02B3,2013-01-13 10:52:00,
2013-01-13 05:57:00,64.0,58.0,29.78,ESE,121,9.0,12.0,81,0.00,,,0.11,WeatherCatV1.02B3,2013-01-13 10:57:00,
2013-01-13 06:02:00,64.2,58.2,29.78,SE,142,7.0,10.0,81,0.00,,,0.11,WeatherCatV1.02B3,2013-01-13 11:02:00,
2013-01-13 06:07:00,64.2,58.2,29.79,SSE,156,0.0,11.0,81,0.00,,,0.11,WeatherCatV1.02B3,2013-01-13 11:07:00,
2013-01-13 06:12:00,64.3,58.0,29.79,SE,136,3.0,9.0,80,0.00,,,0.11,WeatherCatV1.02B3,2013-01-13 11:12:00,
2013-01-13 06:17:00,64.4,58.1,29.78,SSE,165,5.0,16.0,80,0.00,,,0.11,WeatherCatV1.02B3,2013-01-13 11:17:00,
2013-01-13 06:22:00,64.4,58.1,29.79,SSW,198,0.0,7.0,80,0.00,,,0.11,WeatherCatV1.02B3,2013-01-13 11:22:00,
2013-01-13 06:27:00,64.5,58.2,29.78,SW,217,2.0,11.0,80,0.00,,,0.11,WeatherCatV1.02B3,2013-01-13 11:27:00,
2013-01-13 06:32:00,64.5,58.2,29.79,SE,130,3.0,9.0,80,0.00,,,0.11,WeatherCatV1.02B3,2013-01-13 11:32:00,
2013-01-13 06:37:00,64.6,58.3,29.79,SE,134,9.0,9.0,80,0.00,,,0.11,WeatherCatV1.02B3,2013-01-13 11:37:00,
2013-01-13 06:42:00,64.7,58.4,29.79,ESE,122,5.0,10.0,80,0.00,,,0.11,WeatherCatV1.02B3,2013-01-13 11:42:00,
2013-01-13 06:47:00,64.5,58.2,29.80,SSW,211,4.0,7.0,80,0.00,,,0.11,WeatherCatV1.02B3,2013-01-13 11:47:00,
2013-01-13 06:52:00,64.6,58.3,29.79,SSE,153,7.0,12.0,80,0.00,,,0.11,WeatherCatV1.02B3,2013-01-13 11:52:00,
2013-01-13 06:57:00,64.9,58.2,29.81,ESE,109,5.0,9.0,79,0.00,,,0.11,WeatherCatV1.02B3,2013-01-13 11:57:00,
2013-01-13 07:02:00,64.8,58.1,29.80,SSW,212,7.0,9.0,79,0.00,,,0.11,WeatherCatV1.02B3,2013-01-13 12:02:00,
2013-01-13 07:07:00,64.6,58.3,29.80,South,182,1.0,7.0,80,0.00,,,0.11,WeatherCatV1.02B3,2013-01-13 12:07:00,
2013-01-13 07:12:00,64.8,58.5,29.80,South,177,3.0,10.0,80,0.00,,,0.11,WeatherCatV1.02B3,2013-01-13 12:12:00,
2013-01-13 07:17:00,65.0,58.3,29.81,SSW,209,1.0,3.0,79,0.00,,,0.11,WeatherCatV1.02B3,2013-01-13 12:17:00,
2013-01-13 07:22:00,65.1,58.4,29.81,ESE,109,5.0,5.0,79,0.00,,,0.11,WeatherCatV1.02B3,2013-01-13 12:22:00,
2013-01-13 07:27:00,65.1,58.4,29.81,ESE,115,3.0,6.0,79,0.00,,,0.11,WeatherCatV1.02B3,2013-01-13 12:27:00,
2013-01-13 07:32:00,65.0,58.3,29.81,SE,128,3.0,7.0,79,0.00,,,0.11,WeatherCatV1.02B3,2013-01-13 12:32:00,
2013-01-13 07:37:00,65.1,58.4,29.82,SE,133,4.0,6.0,79,0.00,,,0.11,WeatherCatV1.02B3,2013-01-13 12:37:00,
2013-01-13 07:42:00,64.9,58.6,29.82,East,84,6.0,10.0,80,0.00,,,0.11,WeatherCatV1.02B3,2013-01-13 12:42:00,
2013-01-13 07:47:00,64.7,58.4,29.82,ESE,120,3.0,6.0,80,0.00,,,0.11,WeatherCatV1.02B3,2013-01-13 12:47:00,
2013-01-13 07:52:00,65.0,58.7,29.82,ESE,105,0.0,6.0,80,0.00,,,0.11,WeatherCatV1.02B3,2013-01-13 12:52:00,
2013-01-13 07:57:00,64.9,58.2,29.82,SE,144,5.0,6.0,79,0.00,,,0.11,WeatherCatV1.02B3,2013-01-13 12:57:00,
2013-01-13 08:02:00,65.1,58.4,29.82,East,99,0.0,6.0,79,0.00,,,0.11,WeatherCatV1.02B3,2013-01-13 13:02:00,
2013-01-13 08:07:00,65.1,58.4,29.81,SSE,159,2.0,9.0,79,0.00,,,0.11,WeatherCatV1.02B3,2013-01-13 13:07:00,
2013-01-13 08:12:00,65.3,58.6,29.80,SSE,156,3.0,14.0,79,0.00,,,0.11,WeatherCatV1.02B3,2013-01-13 13:12:00,
2013-01-13 08:17:00,65.3,58.6,29.80,SE,132,2.0,10.0,79,0.00,,,0.11,WeatherCatV1.02B3,2013-01-13 13:17:00,
2013-01-13 08:22:00,65.3,58.6,29.80,ESE,113,3.0,7.0,79,0.00,,,0.11,WeatherCatV1.02B3,2013-01-13 13:22:00,
2013-01-13 08:27:00,65.2,58.5,29.82,SSE,166,0.0,10.0,79,0.00,,,0.11,WeatherCatV1.02B3,2013-01-13 13:27:00,
2013-01-13 08:32:00,65.3,58.6,29.83,SW,215,5.0,10.0,79,0.00,,,0.11,WeatherCatV1.02B3,2013-01-13 13:32:00,
2013-01-13 08:37:00,65.1,58.8,29.84,SSW,210,0.0,7.0,80,0.00,,,0.12,WeatherCatV1.02B3,2013-01-13 13:37:00,
2013-01-13 08:42:00,64.7,58.7,29.83,SSW,211,0.0,6.0,81,0.00,,,0.12,WeatherCatV1.02B3,2013-01-13 13:42:00,
2013-01-13 08:47:00,64.5,58.9,29.83,SSW,203,0.0,3.0,82,0.00,,,0.12,WeatherCatV1.02B3,2013-01-13 13:47:00,
2013-01-13 08:52:00,64.3,58.7,29.84,South,176,1.0,3.0,82,0.00,,,0.12,WeatherCatV1.02B3,2013-01-13 13:52:00,
2013-01-13 08:57:00,64.2,58.6,29.84,SSW,196,1.0,6.0,82,0.00,,,0.12,WeatherCatV1.02B3,2013-01-13 13:57:00,
2013-01-13 09:02:00,64.2,58.6,29.84,South,187,5.0,7.0,82,0.00,,,0.12,WeatherCatV1.02B3,2013-01-13 14:02:00,
2013-01-13 09:07:00,64.5,58.9,29.84,SW,216,4.0,5.0,82,0.00,,,0.12,WeatherCatV1.02B3,2013-01-13 14:07:00,
2013-01-13 09:12:00,64.7,58.7,29.85,SSW,197,0.0,6.0,81,0.00,,,0.12,WeatherCatV1.02B3,2013-01-13 14:12:00,
2013-01-13 09:17:00,64.7,58.7,29.85,SSW,208,4.0,6.0,81,0.00,,,0.12,WeatherCatV1.02B3,2013-01-13 14:17:00,
2013-01-13 09:22:00,64.9,58.9,29.86,West,269,4.0,6.0,81,0.00,,,0.12,WeatherCatV1.02B3,2013-01-13 14:22:00,
2013-01-13 09:27:00,60.3,53.4,29.87,WNW,290,4.0,16.0,78,0.00,,,0.12,WeatherCatV1.02B3,2013-01-13 14:27:00,
2013-01-13 09:32:00,56.9,51.5,29.87,WNW,299,7.0,7.0,82,0.00,,,0.12,WeatherCatV1.02B3,2013-01-13 14:32:00,
2013-01-13 09:37:00,54.4,50.0,29.88,West,274,15.0,18.0,85,0.00,,,0.12,WeatherCatV1.02B3,2013-01-13 14:37:00,
2013-01-13 09:42:00,53.7,50.2,29.88,WSW,256,5.0,12.0,88,0.00,,,0.12,WeatherCatV1.02B3,2013-01-13 14:42:00,
2013-01-13 09:47:00,54.0,51.1,29.88,WSW,240,4.0,9.0,90,0.00,,,0.12,WeatherCatV1.02B3,2013-01-13 14:47:00,
2013-01-13 09:52:00,54.8,52.2,29.89,SW,216,4.0,7.0,91,0.00,,,0.12,WeatherCatV1.02B3,2013-01-13 14:52:00,
2013-01-13 09:57:00,55.6,53.3,29.88,SSW,200,4.0,5.0,92,0.00,,,0.12,WeatherCatV1.02B3,2013-01-13 14:57:00,
2013-01-13 10:02:00,56.1,53.8,29.88,SSW,195,0.0,3.0,92,0.00,,,0.12,WeatherCatV1.02B3,2013-01-13 15:02:00,
2013-01-13 10:07:00,56.6,54.3,29.87,SSW,195,0.0,3.0,92,0.00,,,0.12,WeatherCatV1.02B3,2013-01-13 15:07:00,
2013-01-13 10:12:00,57.1,54.8,29.88,South,188,1.0,4.0,92,0.00,,,0.12,WeatherCatV1.02B3,2013-01-13 15:12:00,
2013-01-13 10:17:00,57.7,55.1,29.89,SW,233,0.0,4.0,91,0.00,,,0.12,WeatherCatV1.02B3,2013-01-13 15:17:00,
2013-01-13 10:22:00,55.1,51.3,29.90,WSW,253,5.0,11.0,87,0.00,,,0.12,WeatherCatV1.02B3,2013-01-13 15:22:00,
2013-01-13 10:27:00,52.0,48.3,29.90,West,263,4.0,5.0,87,0.00,,,0.12,WeatherCatV1.02B3,2013-01-13 15:27:00,
2013-01-13 10:32:00,51.4,48.3,29.92,West,261,14.0,14.0,89,0.00,,,0.12,WeatherCatV1.02B3,2013-01-13 15:32:00,
2013-01-13 10:37:00,48.8,45.4,29.92,WSW,244,10.0,19.0,88,0.00,,,0.12,WeatherCatV1.02B3,2013-01-13 15:37:00,
2013-01-13 10:42:00,47.4,44.3,29.94,West,263,7.0,17.0,89,0.00,,,0.12,WeatherCatV1.02B3,2013-01-13 15:42:00,
2013-01-13 10:47:00,47.1,44.3,29.94,SW,233,5.0,13.0,90,0.00,,,0.12,WeatherCatV1.02B3,2013-01-13 15:47:00,
2013-01-13 10:52:00,48.4,46.2,29.94,SW,217,5.0,9.0,92,0.00,,,0.12,WeatherCatV1.02B3,2013-01-13 15:52:00,
2013-01-13 10:57:00,49.4,47.2,29.94,WSW,256,5.0,6.0,92,0.00,,,0.12,WeatherCatV1.02B3,2013-01-13 15:57:00,
2013-01-13 11:03:00,50.0,48.1,29.94,SW,230,0.0,4.0,93,0.00,,,0.12,WeatherCatV1.02B3,2013-01-13 16:03:00,
2013-01-13 11:08:00,50.8,48.8,29.93,SW,214,0.0,2.0,93,0.00,,,0.12,WeatherCatV1.02B3,2013-01-13 16:08:00,
2013-01-13 11:13:00,51.8,49.8,29.93,SSW,210,4.0,5.0,93,0.00,,,0.12,WeatherCatV1.02B3,2013-01-13 16:13:00,
2013-01-13 11:18:00,52.5,50.5,29.93,SW,219,3.0,10.0,93,0.00,,,0.12,WeatherCatV1.02B3,2013-01-13 16:18:00,
2013-01-13 11:23:00,52.7,50.4,29.93,South,176,2.0,7.0,92,0.00,,,0.12,WeatherCatV1.02B3,2013-01-13 16:23:00,
2013-01-13 11:28:00,52.8,50.5,29.93,WSW,238,1.0,4.0,92,0.00,,,0.12,WeatherCatV1.02B3,2013-01-13 16:28:00,
2013-01-13 11:33:00,53.1,50.8,29.92,SSW,199,2.0,2.0,92,0.00,,,0.12,WeatherCatV1.02B3,2013-01-13 16:33:00,
2013-01-13 11:38:00,53.4,50.8,29.93,SW,217,0.0,3.0,91,0.00,,,0.12,WeatherCatV1.02B3,2013-01-13 16:38:00,
2013-01-13 11:43:00,53.8,51.2,29.93,WSW,252,2.0,6.0,91,0.00,,,0.12,WeatherCatV1.02B3,2013-01-13 16:43:00,
2013-01-13 11:48:00,54.0,51.1,29.93,SSW,197,2.0,5.0,90,0.00,,,0.12,WeatherCatV1.02B3,2013-01-13 16:48:00,
2013-01-13 11:53:00,53.9,51.0,29.93,WNW,288,3.0,6.0,90,0.00,,,0.12,WeatherCatV1.02B3,2013-01-13 16:53:00,
2013-01-13 11:58:00,52.5,49.0,29.92,WNW,294,0.0,6.0,88,0.00,,,0.12,WeatherCatV1.02B3,2013-01-13 16:58:00,
2013-01-13 12:03:00,51.5,47.8,29.90,WNW,294,0.0,2.0,87,0.00,,,0.12,WeatherCatV1.02B3,2013-01-13 17:03:00,
2013-01-13 12:08:00,51.1,47.7,29.90,SSW,208,0.0,0.0,88,0.00,,,0.12,WeatherCatV1.02B3,2013-01-13 17:08:00,
2013-01-13 12:13:00,51.2,48.1,29.90,SW,221,0.0,0.0,89,0.00,,,0.12,WeatherCatV1.02B3,2013-01-13 17:13:00,
2013-01-13 12:18:00,51.4,48.3,29.89,SW,221,0.0,0.0,89,0.00,,,0.12,WeatherCatV1.02B3,2013-01-13 17:18:00,
2013-01-13 12:23:00,52.0,49.2,29.89,WNW,299,1.0,2.0,90,0.00,,,0.12,WeatherCatV1.02B3,2013-01-13 17:23:00,
2013-01-13 12:28:00,51.6,48.5,29.89,NNW,327,3.0,5.0,89,0.00,,,0.12,WeatherCatV1.02B3,2013-01-13 17:28:00,
2013-01-13 12:33:00,49.8,46.1,29.89,West,263,2.0,2.0,87,0.00,,,0.12,WeatherCatV1.02B3,2013-01-13 17:33:00,
2013-01-13 12:38:00,49.3,45.9,29.88,West,263,0.0,0.0,88,0.00,,,0.12,WeatherCatV1.02B3,2013-01-13 17:38:00,
2013-01-13 12:43:00,49.1,45.7,29.88,West,263,0.0,0.0,88,0.00,,,0.12,WeatherCatV1.02B3,2013-01-13 17:43:00,
2013-01-13 12:48:00,49.3,46.2,29.87,West,263,0.0,0.0,89,0.00,,,0.12,WeatherCatV1.02B3,2013-01-13 17:48:00,
2013-01-13 12:53:00,49.7,46.6,29.87,West,263,0.0,0.0,89,0.00,,,0.12,WeatherCatV1.02B3,2013-01-13 17:53:00,
2013-01-13 12:58:00,50.2,47.4,29.86,West,263,0.0,0.0,90,0.00,,,0.12,WeatherCatV1.02B3,2013-01-13 17:58:00,
2013-01-13 13:03:00,50.0,46.9,29.88,NW,315,3.0,4.0,89,0.00,,,0.12,WeatherCatV1.02B3,2013-01-13 18:03:00,
2013-01-13 13:08:00,48.3,44.6,29.89,West,277,3.0,4.0,87,0.00,,,0.12,WeatherCatV1.02B3,2013-01-13 18:08:00,
2013-01-13 13:13:00,46.5,42.5,29.90,West,281,2.0,3.0,86,0.00,,,0.12,WeatherCatV1.02B3,2013-01-13 18:13:00,
2013-01-13 13:18:00,46.2,42.5,29.91,WNW,298,3.0,7.0,87,0.00,,,0.12,WeatherCatV1.02B3,2013-01-13 18:18:00,
2013-01-13 13:23:00,44.9,41.3,29.92,WNW,285,5.0,10.0,87,0.00,,,0.12,WeatherCatV1.02B3,2013-01-13 18:23:00,
2013-01-13 13:28:00,43.9,40.6,29.92,WSW,255,4.0,14.0,88,0.00,,,0.12,WeatherCatV1.02B3,2013-01-13 18:28:00,
2013-01-13 13:33:00,43.4,40.1,29.92,WNW,299,6.0,10.0,88,0.00,,,0.12,WeatherCatV1.02B3,2013-01-13 18:33:00,
2013-01-13 13:38:00,43.9,40.9,29.92,SW,234,2.0,7.0,89,0.00,,,0.12,WeatherCatV1.02B3,2013-01-13 18:38:00,
2013-01-13 13:43:00,44.9,42.1,29.93,WSW,254,2.0,7.0,90,0.00,,,0.12,WeatherCatV1.02B3,2013-01-13 18:43:00,
2013-01-13 13:48:00,44.8,42.0,29.93,SW,215,0.0,5.0,90,0.00,,,0.12,WeatherCatV1.02B3,2013-01-13 18:48:00,
2013-01-13 13:53:00,44.7,41.9,29.93,SSW,211,4.0,4.0,90,0.00,,,0.12,WeatherCatV1.02B3,2013-01-13 18:53:00,
2013-01-13 13:58:00,44.8,42.0,29.93,SW,232,0.0,3.0,90,0.00,,,0.12,WeatherCatV1.02B3,2013-01-13 18:58:00,
2013-01-13 14:03:00,45.0,42.2,29.93,SW,223,3.0,4.0,90,0.00,,,0.12,WeatherCatV1.02B3,2013-01-13 19:03:00,
2013-01-13 14:08:00,45.3,42.5,29.93,SW,226,0.0,3.0,90,0.00,,,0.12,WeatherCatV1.02B3,2013-01-13 19:08:00,
2013-01-13 14:13:00,45.5,42.4,29.92,WSW,240,0.0,0.0,89,0.00,,,0.12,WeatherCatV1.02B3,2013-01-13 19:13:00,
2013-01-13 14:18:00,45.9,43.1,29.93,SW,215,0.0,2.0,90,0.00,,,0.12,WeatherCatV1.02B3,2013-01-13 19:18:00,
2013-01-13 14:23:00,46.3,43.5,29.93,SSW,198,3.0,3.0,90,0.00,,,0.12,WeatherCatV1.02B3,2013-01-13 19:23:00,
2013-01-13 14:28:00,47.0,44.2,29.93,SW,229,0.0,0.0,90,0.00,,,0.12,WeatherCatV1.02B3,2013-01-13 19:28:00,
2013-01-13 14:33:00,47.5,44.7,29.93,SW,229,0.0,0.0,90,0.00,,,0.12,WeatherCatV1.02B3,2013-01-13 19:33:00,
2013-01-13 14:38:00,48.0,45.2,29.92,SW,229,0.0,0.0,90,0.00,,,0.12,WeatherCatV1.02B3,2013-01-13 19:38:00,
2013-01-13 14:43:00,48.5,45.7,29.93,SW,229,0.0,0.0,90,0.00,,,0.12,WeatherCatV1.02B3,2013-01-13 19:43:00,
2013-01-13 14:48:00,49.0,46.2,29.93,WSW,256,1.0,4.0,90,0.00,,,0.12,WeatherCatV1.02B3,2013-01-13 19:48:00,
2013-01-13 14:53:00,49.7,46.9,29.94,SW,230,1.0,2.0,90,0.00,,,0.12,WeatherCatV1.02B3,2013-01-13 19:53:00,
2013-01-13 14:58:00,50.0,47.2,29.95,SW,221,0.0,4.0,90,0.00,,,0.12,WeatherCatV1.02B3,2013-01-13 19:58:00,
2013-01-13 15:03:00,50.0,46.9,29.95,WSW,242,1.0,3.0,89,0.00,,,0.12,WeatherCatV1.02B3,2013-01-13 20:03:00,
2013-01-13 15:08:00,48.8,45.4,29.96,WSW,249,3.0,3.0,88,0.00,,,0.12,WeatherCatV1.02B3,2013-01-13 20:08:00,
2013-01-13 15:13:00,47.6,43.9,29.96,WNW,283,0.0,3.0,87,0.00,,,0.12,WeatherCatV1.02B3,2013-01-13 20:13:00,
2013-01-13 15:18:00,46.6,42.6,29.96,WNW,290,0.0,3.0,86,0.00,,,0.12,WeatherCatV1.02B3,2013-01-13 20:18:00,
2013-01-13 15:23:00,45.3,41.1,29.97,West,261,3.0,4.0,85,0.00,,,0.12,WeatherCatV1.02B3,2013-01-13 20:23:00,
2013-01-13 15:28:00,43.9,39.7,29.97,WNW,294,2.0,4.0,85,0.00,,,0.12,WeatherCatV1.02B3,2013-01-13 20:28:00,
2013-01-13 15:33:00,43.5,39.6,29.96,West,259,0.0,4.0,86,0.00,,,0.12,WeatherCatV1.02B3,2013-01-13 20:33:00,
2013-01-13 15:38:00,43.5,39.9,29.96,WSW,248,2.0,2.0,87,0.00,,,0.12,WeatherCatV1.02B3,2013-01-13 20:38:00,
2013-01-13 15:43:00,43.7,40.4,29.95,WSW,248,0.0,2.0,88,0.00,,,0.12,WeatherCatV1.02B3,2013-01-13 20:43:00,
2013-01-13 15:48:00,43.8,40.5,29.94,WSW,248,0.0,0.0,88,0.00,,,0.12,WeatherCatV1.02B3,2013-01-13 20:48:00,
2013-01-13 15:53:00,44.2,40.9,29.94,WSW,248,0.0,0.0,88,0.00,,,0.12,WeatherCatV1.02B3,2013-01-13 20:53:00,
2013-01-13 15:58:00,44.6,41.6,29.94,WSW,248,0.0,0.0,89,0.00,,,0.12,WeatherCatV1.02B3,2013-01-13 20:58:00,
2013-01-13 16:03:00,45.2,42.2,29.94,WSW,248,0.0,0.0,89,0.00,,,0.12,WeatherCatV1.02B3,2013-01-13 21:03:00,
2013-01-13 16:08:00,45.7,42.6,29.93,WSW,248,0.0,0.0,89,0.00,,,0.12,WeatherCatV1.02B3,2013-01-13 21:08:00,
2013-01-13 16:13:00,46.2,43.1,29.94,WSW,248,0.0,0.0,89,0.00,,,0.12,WeatherCatV1.02B3,2013-01-13 21:13:00,
2013-01-13 16:18:00,46.6,43.5,29.94,WSW,248,0.0,0.0,89,0.00,,,0.12,WeatherCatV1.02B3,2013-01-13 21:18:00,
2013-01-13 16:23:00,46.9,43.8,29.94,WSW,248,0.0,0.0,89,0.00,,,0.12,WeatherCatV1.02B3,2013-01-13 21:23:00,
2013-01-13 16:28:00,47.1,44.0,29.94,WSW,248,0.0,0.0,89,0.00,,,0.12,WeatherCatV1.02B3,2013-01-13 21:28:00,
2013-01-13 16:33:00,47.3,44.2,29.94,WSW,248,0.0,0.0,89,0.00,,,0.12,WeatherCatV1.02B3,2013-01-13 21:33:00,
2013-01-13 16:38:00,47.5,44.4,29.94,WSW,248,0.0,0.0,89,0.00,,,0.12,WeatherCatV1.02B3,2013-01-13 21:38:00,
2013-01-13 16:43:00,47.7,44.6,29.94,WSW,248,0.0,0.0,89,0.00,,,0.12,WeatherCatV1.02B3,2013-01-13 21:43:00,
2013-01-13 16:48:00,47.7,44.6,29.95,WNW,293,3.0,4.0,89,0.00,,,0.12,WeatherCatV1.02B3,2013-01-13 21:48:00,
2013-01-13 16:53:00,45.4,41.5,29.96,WSW,246,4.0,6.0,86,0.00,,,0.12,WeatherCatV1.02B3,2013-01-13 21:53:00,
2013-01-13 16:58:00,43.4,39.5,29.97,West,269,3.0,6.0,86,0.00,,,0.12,WeatherCatV1.02B3,2013-01-13 21:58:00,
2013-01-13 17:03:00,42.8,39.2,29.97,West,259,1.0,3.0,87,0.00,,,0.12,WeatherCatV1.02B3,2013-01-13 22:03:00,
2013-01-13 17:08:00,42.4,39.1,29.97,WSW,258,2.0,6.0,88,0.00,,,0.12,WeatherCatV1.02B3,2013-01-13 22:08:00,
2013-01-13 17:13:00,42.2,39.2,29.97,SW,232,3.0,4.0,89,0.00,,,0.12,WeatherCatV1.02B3,2013-01-13 22:13:00,
2013-01-13 17:18:00,42.3,39.3,29.97,WSW,252,0.0,2.0,89,0.00,,,0.12,WeatherCatV1.02B3,2013-01-13 22:18:00,
2013-01-13 17:23:00,42.3,39.6,29.97,NW,312,0.0,2.0,90,0.00,,,0.12,WeatherCatV1.02B3,2013-01-13 22:23:00,
2013-01-13 17:28:00,42.3,39.6,29.98,WSW,244,3.0,4.0,90,0.00,,,0.12,WeatherCatV1.02B3,2013-01-13 22:28:00,
2013-01-13 17:33:00,42.3,39.9,29.98,WSW,254,0.0,4.0,91,0.00,,,0.12,WeatherCatV1.02B3,2013-01-13 22:33:00,
2013-01-13 17:38:00,42.3,39.9,29.98,SW,221,0.0,4.0,91,0.00,,,0.12,WeatherCatV1.02B3,2013-01-13 22:38:00,
2013-01-13 17:43:00,42.1,39.9,29.98,WSW,256,2.0,6.0,92,0.00,,,0.12,WeatherCatV1.02B3,2013-01-13 22:43:00,
2013-01-13 17:48:00,42.0,39.8,29.98,West,269,3.0,7.0,92,0.00,,,0.12,WeatherCatV1.02B3,2013-01-13 22:48:00,
2013-01-13 17:53:00,41.7,39.5,29.97,WNW,291,2.0,3.0,92,0.00,,,0.12,WeatherCatV1.02B3,2013-01-13 22:53:00,
2013-01-13 17:58:00,41.7,39.5,29.97,West,263,0.0,3.0,92,0.00,,,0.12,WeatherCatV1.02B3,2013-01-13 22:58:00,
2013-01-13 18:03:00,41.7,39.5,29.97,SW,225,0.0,3.0,92,0.00,,,0.12,WeatherCatV1.02B3,2013-01-13 23:03:00,
2013-01-13 18:08:00,41.7,39.8,29.97,SW,225,1.0,2.0,93,0.00,,,0.12,WeatherCatV1.02B3,2013-01-13 23:08:00,
2013-01-13 18:13:00,41.8,39.9,29.97,SW,225,0.0,0.0,93,0.00,,,0.12,WeatherCatV1.02B3,2013-01-13 23:13:00,
2013-01-13 18:18:00,41.9,40.0,29.96,SW,225,0.0,0.0,93,0.00,,,0.12,WeatherCatV1.02B3,2013-01-13 23:18:00,
2013-01-13 18:23:00,42.0,40.1,29.96,SW,225,0.0,0.0,93,0.00,,,0.12,WeatherCatV1.02B3,2013-01-13 23:23:00,
2013-01-13 18:28:00,42.1,40.2,29.96,SW,225,0.0,0.0,93,0.00,,,0.12,WeatherCatV1.02B3,2013-01-13 23:28:00,
2013-01-13 18:33:00,42.1,40.2,29.96,SW,225,0.0,0.0,93,0.00,,,0.12,WeatherCatV1.02B3,2013-01-13 23:33:00,
2013-01-13 18:38:00,42.2,40.3,29.96,SW,225,0.0,0.0,93,0.00,,,0.12,WeatherCatV1.02B3,2013-01-13 23:38:00,
2013-01-13 18:43:00,42.2,40.6,29.96,SW,225,0.0,0.0,94,0.00,,,0.12,WeatherCatV1.02B3,2013-01-13 23:43:00,
2013-01-13 18:48:00,42.4,40.8,29.95,SW,225,0.0,0.0,94,0.00,,,0.12,WeatherCatV1.02B3,2013-01-13 23:48:00,
2013-01-13 18:53:00,42.4,40.8,29.95,SW,225,0.0,0.0,94,0.00,,,0.12,WeatherCatV1.02B3,2013-01-13 23:53:00,
2013-01-13 18:58:00,42.5,40.9,29.95,SW,225,0.0,0.0,94,0.05,,,0.13,WeatherCatV1.02B3,2013-01-13 23:58:00,
2013-01-13 19:03:00,42.6,41.0,29.95,SW,225,0.0,0.0,94,0.05,,,0.13,WeatherCatV1.02B3,2013-01-14 00:03:00,
2013-01-13 19:08:00,42.7,41.1,29.95,SW,225,0.0,0.0,94,0.05,,,0.13,WeatherCatV1.02B3,2013-01-14 00:08:00,
2013-01-13 19:13:00,42.8,41.2,29.95,SW,223,0.0,0.0,94,0.04,,,0.14,WeatherCatV1.02B3,2013-01-14 00:13:00,
2013-01-13 19:18:00,43.0,41.4,29.95,SW,223,0.0,0.0,94,0.08,,,0.15,WeatherCatV1.02B3,2013-01-14 00:18:00,
2013-01-13 19:23:00,43.0,41.4,29.95,SW,223,0.0,0.0,94,0.09,,,0.16,WeatherCatV1.02B3,2013-01-14 00:23:00,
2013-01-13 19:28:00,43.1,41.5,29.95,SW,223,0.0,0.0,94,0.13,,,0.17,WeatherCatV1.02B3,2013-01-14 00:28:00,
2013-01-13 19:33:00,43.2,41.6,29.95,SW,223,0.0,0.0,94,0.10,,,0.17,WeatherCatV1.02B3,2013-01-14 00:33:00,
2013-01-13 19:38:00,43.5,41.9,29.95,SW,223,0.0,0.0,94,0.09,,,0.18,WeatherCatV1.02B3,2013-01-14 00:38:00,
2013-01-13 19:43:00,43.6,42.3,29.95,SW,223,0.0,0.0,95,0.13,,,0.19,WeatherCatV1.02B3,2013-01-14 00:43:00,
2013-01-13 19:48:00,43.7,42.4,29.95,SW,223,0.0,0.0,95,0.08,,,0.20,WeatherCatV1.02B3,2013-01-14 00:48:00,
2013-01-13 19:53:00,43.9,42.6,29.96,SW,223,1.0,2.0,95,0.11,,,0.21,WeatherCatV1.02B3,2013-01-14 00:53:00,
2013-01-13 19:58:00,43.9,42.3,29.95,SW,223,0.0,1.0,94,0.11,,,0.22,WeatherCatV1.02B3,2013-01-14 00:58:00,
2013-01-13 20:03:00,44.0,42.7,29.95,SW,223,0.0,2.0,95,0.12,,,0.23,WeatherCatV1.02B3,2013-01-14 01:03:00,
2013-01-13 20:08:00,44.2,42.9,29.95,SW,223,0.0,4.0,95,0.09,,,0.23,WeatherCatV1.02B3,2013-01-14 01:08:00,
2013-01-13 20:13:00,44.4,43.1,29.94,WNW,297,0.0,3.0,95,0.07,,,0.24,WeatherCatV1.02B3,2013-01-14 01:13:00,
2013-01-13 20:18:00,44.6,43.3,29.94,WSW,244,1.0,3.0,95,0.07,,,0.24,WeatherCatV1.02B3,2013-01-14 01:18:00,
2013-01-13 20:23:00,44.5,43.2,29.94,WSW,248,1.0,4.0,95,0.05,,,0.25,WeatherCatV1.02B3,2013-01-14 01:23:00,
2013-01-13 20:28:00,44.2,42.9,29.94,WSW,239,2.0,4.0,95,0.05,,,0.25,WeatherCatV1.02B3,2013-01-14 01:28:00,
2013-01-13 20:33:00,43.9,42.6,29.94,NW,319,0.0,1.0,95,0.05,,,0.25,WeatherCatV1.02B3,2013-01-14 01:33:00,
2013-01-13 20:38:00,43.6,42.3,29.92,West,271,0.0,1.0,95,0.04,,,0.25,WeatherCatV1.02B3,2013-01-14 01:38:00,
2013-01-13 20:43:00,43.5,42.2,29.90,West,271,0.0,0.0,95,0.00,,,0.25,WeatherCatV1.02B3,2013-01-14 01:43:00,
2013-01-13 20:48:00,43.5,42.2,29.90,West,271,0.0,0.0,95,0.00,,,0.26,WeatherCatV1.02B3,2013-01-14 01:48:00,
2013-01-13 20:53:00,43.6,42.3,29.91,West,271,0.0,1.0,95,0.00,,,0.26,WeatherCatV1.02B3,2013-01-14 01:53:00,
2013-01-13 20:58:00,43.7,42.4,29.91,West,271,0.0,0.0,95,0.00,,,0.26,WeatherCatV1.02B3,2013-01-14 01:58:00,
2013-01-13 21:03:00,43.8,42.5,29.91,West,271,0.0,0.0,95,0.00,,,0.26,WeatherCatV1.02B3,2013-01-14 02:03:00,
2013-01-13 21:08:00,43.8,42.5,29.91,West,271,0.0,0.0,95,0.00,,,0.26,WeatherCatV1.02B3,2013-01-14 02:08:00,
2013-01-13 21:13:00,43.7,42.4,29.91,West,271,0.0,0.0,95,0.00,,,0.26,WeatherCatV1.02B3,2013-01-14 02:13:00,
2013-01-13 21:18:00,43.8,42.5,29.91,West,271,0.0,0.0,95,0.00,,,0.26,WeatherCatV1.02B3,2013-01-14 02:18:00,
2013-01-13 21:23:00,43.8,42.5,29.91,West,271,0.0,0.0,95,0.00,,,0.26,WeatherCatV1.02B3,2013-01-14 02:23:00,
2013-01-13 21:28:00,43.8,42.5,29.91,West,271,0.0,0.0,95,0.00,,,0.26,WeatherCatV1.02B3,2013-01-14 02:28:00,
2013-01-13 21:33:00,43.8,42.5,29.91,West,271,0.0,0.0,95,0.00,,,0.26,WeatherCatV1.02B3,2013-01-14 02:33:00,
2013-01-13 21:38:00,43.8,42.5,29.91,West,271,0.0,3.0,95,0.00,,,0.26,WeatherCatV1.02B3,2013-01-14 02:38:00,
2013-01-13 21:43:00,43.7,42.4,29.92,WSW,248,5.0,7.0,95,0.00,,,0.26,WeatherCatV1.02B3,2013-01-14 02:43:00,
2013-01-13 21:48:00,43.0,41.7,29.91,West,264,0.0,5.0,95,0.00,,,0.26,WeatherCatV1.02B3,2013-01-14 02:48:00,
2013-01-13 21:53:00,42.5,41.2,29.91,WNW,287,4.0,4.0,95,0.00,,,0.26,WeatherCatV1.02B3,2013-01-14 02:53:00,
2013-01-13 21:58:00,42.1,40.8,29.92,SW,230,3.0,7.0,95,0.00,,,0.26,WeatherCatV1.02B3,2013-01-14 02:58:00,
2013-01-13 22:03:00,41.7,40.4,29.93,WSW,242,3.0,7.0,95,0.00,,,0.27,WeatherCatV1.02B3,2013-01-14 03:03:00,
2013-01-13 22:08:00,41.5,40.2,29.92,WSW,258,1.0,3.0,95,0.00,,,0.27,WeatherCatV1.02B3,2013-01-14 03:08:00,
2013-01-13 22:13:00,41.4,40.1,29.91,West,263,2.0,4.0,95,0.00,,,0.27,WeatherCatV1.02B3,2013-01-14 03:13:00,
2013-01-13 22:18:00,41.4,40.1,29.92,WSW,254,1.0,4.0,95,0.00,,,0.27,WeatherCatV1.02B3,2013-01-14 03:18:00,
2013-01-13 22:23:00,41.3,40.0,29.92,WSW,247,1.0,7.0,95,0.00,,,0.27,WeatherCatV1.02B3,2013-01-14 03:23:00,
2013-01-13 22:28:00,41.1,39.8,29.93,WSW,252,5.0,9.0,95,0.00,,,0.27,WeatherCatV1.02B3,2013-01-14 03:28:00,
2013-01-13 22:33:00,40.9,39.6,29.94,West,264,2.0,5.0,95,0.00,,,0.27,WeatherCatV1.02B3,2013-01-14 03:33:00,
2013-01-13 22:38:00,40.8,39.5,29.95,SW,234,3.0,8.0,95,0.00,,,0.27,WeatherCatV1.02B3,2013-01-14 03:38:00,
2013-01-13 22:43:00,40.6,39.3,29.95,WSW,247,4.0,7.0,95,0.00,,,0.27,WeatherCatV1.02B3,2013-01-14 03:43:00,
2013-01-13 22:48:00,40.6,39.3,29.95,WSW,247,5.0,10.0,95,0.00,,,0.28,WeatherCatV1.02B3,2013-01-14 03:48:00,
2013-01-13 22:53:00,40.6,39.3,29.96,West,265,2.0,7.0,95,0.00,,,0.28,WeatherCatV1.02B3,2013-01-14 03:53:00,
2013-01-13 22:58:00,40.6,39.3,29.96,West,269,7.0,10.0,95,0.00,,,0.28,WeatherCatV1.02B3,2013-01-14 03:58:00,
2013-01-13 23:03:00,40.7,39.4,29.96,WSW,246,4.0,4.0,95,0.04,,,0.29,WeatherCatV1.02B3,2013-01-14 04:03:00,
2013-01-13 23:08:00,40.9,39.6,29.97,West,263,2.0,6.0,95,0.10,,,0.30,WeatherCatV1.02B3,2013-01-14 04:08:00,
2013-01-13 23:13:00,40.8,39.5,29.97,WSW,238,7.0,12.0,95,0.14,,,0.31,WeatherCatV1.02B3,2013-01-14 04:13:00,
2013-01-13 23:18:00,40.8,39.5,29.98,West,265,5.0,16.0,95,0.12,,,0.32,WeatherCatV1.02B3,2013-01-14 04:18:00,
2013-01-13 23:23:00,40.8,39.5,30.00,WSW,243,4.0,15.0,95,0.09,,,0.32,WeatherCatV1.02B3,2013-01-14 04:23:00,
2013-01-13 23:28:00,40.6,39.3,30.01,WSW,238,6.0,15.0,95,0.08,,,0.33,WeatherCatV1.02B3,2013-01-14 04:28:00,
2013-01-13 23:33:00,40.5,39.2,30.01,WSW,242,6.0,9.0,95,0.06,,,0.33,WeatherCatV1.02B3,2013-01-14 04:33:00,
2013-01-13 23:38:00,40.3,39.0,30.03,SW,225,8.0,10.0,95,0.04,,,0.34,WeatherCatV1.02B3,2013-01-14 04:38:00,
2013-01-13 23:43:00,40.2,38.9,30.03,WSW,245,10.0,11.0,95,0.04,,,0.34,WeatherCatV1.02B3,2013-01-14 04:43:00,
2013-01-13 23:48:00,40.1,38.8,30.04,West,263,5.0,11.0,95,0.10,,,0.35,WeatherCatV1.02B3,2013-01-14 04:48:00,
2013-01-13 23:53:00,40.1,38.8,30.05,WSW,245,6.0,9.0,95,0.06,,,0.35,WeatherCatV1.02B3,2013-01-14 04:53:00,
2013-01-13 23:58:00,40.0,38.7,30.06,WSW,245,4.0,10.0,95,0.04,,,0.35,WeatherCatV1.02B3,2013-01-14 04:58:00,